createdAt,value
2019-02-22T00:00:15.745Z,60.1
2019-02-22T00:03:15.211Z,60.1
2019-02-22T00:06:15.801Z,61.6
2019-02-22T00:09:15.245Z,60.7
2019-02-22T00:12:15.835Z,61.6
2019-02-22T00:15:15.410Z,61.1
2019-02-22T00:18:15.117Z,61.2
2019-02-22T00:21:15.610Z,62.3
2019-02-22T00:24:15.265Z,61.5
2019-02-22T00:27:15.870Z,62.2
2019-02-22T00:30:15.402Z,62.0
2019-02-22T00:33:15.102Z,61.6
2019-02-22T00:36:15.655Z,61.2
2019-02-22T00:39:15.132Z,63.0
2019-02-22T00:42:15.532Z,62.4
2019-02-22T00:45:15.109Z,61.0
2019-02-22T00:48:15.661Z,61.3
2019-02-22T00:51:15.230Z,61.1
2019-02-22T00:54:15.832Z,61.3
2019-02-22T00:57:15.370Z,60.9
2019-02-22T01:00:15.084Z,61.1
2019-02-22T01:03:15.774Z,61.3
2019-02-22T01:06:15.193Z,60.8
2019-02-22T01:09:15.876Z,61.4
2019-02-22T01:12:15.246Z,61.1
2019-02-22T01:15:15.782Z,61.5
2019-02-22T01:18:15.436Z,61.2
2019-02-22T01:21:15.265Z,61.9
2019-02-22T01:24:15.734Z,61.0
2019-02-22T01:27:15.165Z,61.1
2019-02-22T01:30:15.530Z,61.4
2019-02-22T01:33:15.063Z,61.4
2019-02-22T01:36:15.560Z,60.7
2019-02-22T01:39:15.132Z,61.6
2019-02-22T01:42:15.506Z,61.2
2019-02-22T01:45:15.167Z,62.0
2019-02-22T01:48:15.691Z,61.6
2019-02-22T01:51:15.290Z,62.9
2019-02-22T01:54:15.889Z,62.2
2019-02-22T01:57:15.299Z,62.1
2019-02-22T02:00:15.816Z,62.1
2019-02-22T02:03:15.304Z,62.7
2019-02-22T02:06:15.635Z,62.4
2019-02-22T02:09:15.233Z,62.7
2019-02-22T02:12:15.168Z,62.4
2019-02-22T02:15:15.677Z,62.0
2019-02-22T02:18:15.151Z,62.4
2019-02-22T02:21:15.639Z,62.3
2019-02-22T02:24:15.582Z,62.4
2019-02-22T02:27:15.414Z,62.6
2019-02-22T02:30:15.172Z,62.5
2019-02-22T02:33:15.520Z,61.4
2019-02-22T02:36:15.204Z,62.9
2019-02-22T02:39:15.191Z,62.4
2019-02-22T02:42:15.605Z,62.4
2019-02-22T02:45:15.302Z,62.4
2019-02-22T02:48:15.772Z,62.5
2019-02-22T02:51:15.195Z,63.0
2019-02-22T02:54:15.135Z,62.9
2019-02-22T02:57:15.457Z,63.2
2019-02-22T03:00:15.200Z,62.5
2019-02-22T03:03:15.182Z,63.3
2019-02-22T03:06:15.772Z,63.5
2019-02-22T03:09:15.236Z,63.5
2019-02-22T03:12:15.709Z,63.3
2019-02-22T03:15:15.247Z,62.8
2019-02-22T03:18:15.724Z,63.0
2019-02-22T03:21:15.380Z,62.7
2019-02-22T03:24:15.207Z,62.3
2019-02-22T03:27:15.781Z,62.3
2019-02-22T03:30:15.257Z,62.7
2019-02-22T03:33:15.682Z,63.0
2019-02-22T03:36:15.454Z,62.6
2019-02-22T03:39:15.145Z,62.5
2019-02-22T03:42:15.974Z,62.2
2019-02-22T03:45:15.844Z,62.4
2019-02-22T03:48:15.333Z,62.4
2019-02-22T03:51:15.946Z,62.1
2019-02-22T03:54:15.604Z,62.1
2019-02-22T03:57:15.260Z,61.4
2019-02-22T04:00:15.841Z,62.3
2019-02-22T04:03:15.307Z,62.0
2019-02-22T04:06:15.160Z,62.3
2019-02-22T04:09:15.587Z,62.0
2019-02-22T04:12:15.280Z,62.1
2019-02-22T04:15:15.754Z,61.8
2019-02-22T04:18:15.295Z,61.2
2019-02-22T04:21:15.219Z,62.0
2019-02-22T04:24:15.654Z,61.0
2019-02-22T04:27:15.282Z,61.5
2019-02-22T04:30:15.876Z,62.0
2019-02-22T04:33:15.428Z,62.0
2019-02-22T04:36:15.241Z,62.2
2019-02-22T04:39:15.799Z,62.1
2019-02-22T04:42:15.331Z,61.6
2019-02-22T04:45:15.959Z,61.5
2019-02-22T04:48:15.560Z,61.0
2019-02-22T04:51:15.310Z,62.1
2019-02-22T04:54:15.789Z,62.3
2019-02-22T05:15:21.327Z,62.3
2019-02-22T05:18:15.156Z,62.9
2019-02-22T05:21:15.377Z,62.5
2019-02-22T05:24:15.748Z,62.7
2019-02-22T05:27:15.956Z,62.5
2019-02-22T05:30:15.411Z,62.5
2019-02-22T05:33:15.779Z,62.5
2019-02-22T05:36:15.260Z,62.0
2019-02-22T05:39:19.133Z,62.3
2019-02-22T05:42:22.801Z,63.0
2019-02-22T05:45:15.103Z,63.3
2019-02-22T05:48:15.403Z,63.3
2019-02-22T05:51:15.863Z,63.1
2019-02-22T05:54:15.181Z,62.5
2019-02-22T05:57:15.560Z,63.2
2019-02-22T06:00:15.382Z,62.1
2019-02-22T06:03:15.782Z,62.7
2019-02-22T06:06:15.320Z,63.8
2019-02-22T06:09:15.610Z,63.6
2019-02-22T06:12:15.045Z,63.2
2019-02-22T06:15:15.367Z,63.3
2019-02-22T06:18:14.961Z,63.1
2019-02-22T06:21:15.580Z,63.2
2019-02-22T06:24:15.123Z,62.9
2019-02-22T06:27:15.516Z,62.7
2019-02-22T06:30:15.125Z,63.3
2019-02-22T06:33:15.585Z,63.5
2019-02-22T06:36:15.118Z,63.3
2019-02-22T06:39:15.550Z,63.1
2019-02-22T06:42:15.255Z,62.5
2019-02-22T06:45:15.219Z,62.4
2019-02-22T06:48:15.648Z,62.6
2019-02-22T06:51:14.931Z,62.2
2019-02-22T06:54:15.387Z,62.3
2019-02-22T06:57:15.837Z,62.5
2019-02-22T07:00:15.167Z,62.5
2019-02-22T07:03:15.720Z,62.6
2019-02-22T07:06:15.203Z,62.5
2019-02-22T07:09:15.565Z,62.3
2019-02-22T07:12:15.200Z,62.3
2019-02-22T07:15:15.150Z,62.0
2019-02-22T07:18:15.656Z,61.9
2019-02-22T07:21:15.317Z,61.7
2019-02-22T07:24:15.247Z,61.6
2019-02-22T07:27:15.744Z,61.5
2019-02-22T07:30:15.102Z,61.3
2019-02-22T07:33:15.459Z,61.2
2019-02-22T07:36:20.123Z,60.7
2019-02-22T07:39:14.842Z,60.4
2019-02-22T07:42:15.775Z,60.2
2019-02-22T07:45:15.189Z,59.6
2019-02-22T07:48:15.489Z,59.3
2019-02-22T07:51:15.789Z,59.3
2019-02-22T07:54:15.314Z,59.4
2019-02-22T07:57:15.517Z,59.2
2019-02-22T08:00:14.940Z,59.3
2019-02-22T08:03:15.334Z,58.9
2019-02-22T08:06:15.660Z,58.6
2019-02-22T08:09:15.182Z,58.2
2019-02-22T08:12:15.701Z,57.4
2019-02-22T08:15:15.032Z,56.6
2019-02-22T08:18:15.579Z,56.0
2019-02-22T08:21:15.273Z,55.9
2019-02-22T08:24:15.660Z,55.5
2019-02-22T08:27:15.048Z,56.0
2019-02-22T08:30:15.629Z,55.1
2019-02-22T08:33:15.083Z,55.1
2019-02-22T08:36:15.493Z,55.2
2019-02-22T08:39:14.980Z,54.4
2019-02-22T08:42:15.666Z,53.5
2019-02-22T08:45:15.081Z,52.5
2019-02-22T08:48:15.695Z,52.1
2019-02-22T08:51:15.364Z,51.6
2019-02-22T08:54:15.880Z,51.3
2019-02-22T08:57:15.468Z,52.4
2019-02-22T09:00:15.217Z,52.5
2019-02-22T09:03:15.699Z,51.7
2019-02-22T09:06:15.316Z,50.7
2019-02-22T09:09:15.865Z,50.1
2019-02-22T09:12:15.316Z,49.3
2019-02-22T09:15:15.974Z,49.8
2019-02-22T09:18:15.570Z,48.7
2019-02-22T09:21:15.118Z,45.1
2019-02-22T09:24:14.889Z,42.8
2019-02-22T09:27:15.407Z,37.6
2019-02-22T09:30:15.901Z,38.0
2019-02-22T09:33:15.413Z,36.4
2019-02-22T09:36:16.142Z,33.6
2019-02-22T09:39:15.722Z,34.2
2019-02-22T09:42:15.271Z,34.3
2019-02-22T09:45:15.858Z,36.5
2019-02-22T09:48:15.356Z,38.2
2019-02-22T09:51:15.789Z,39.3
2019-02-22T09:54:15.384Z,40.1
2019-02-22T09:57:15.056Z,39.5
2019-02-22T10:00:15.556Z,39.5
2019-02-22T10:03:15.029Z,39.3
2019-02-22T10:06:15.713Z,39.9
2019-02-22T10:09:15.209Z,39.7
2019-02-22T10:12:15.646Z,40.6
2019-02-22T10:15:15.180Z,41.2
2019-02-22T10:18:15.032Z,42.3
2019-02-22T10:21:15.526Z,42.4
2019-02-22T10:24:15.190Z,42.5
2019-02-22T10:27:15.841Z,42.0
2019-02-22T10:30:15.519Z,41.5
2019-02-22T10:33:15.087Z,41.1
2019-02-22T10:36:15.329Z,40.8
2019-02-22T10:39:15.793Z,39.3
2019-02-22T10:42:15.504Z,37.2
2019-02-22T10:45:14.864Z,35.7
2019-02-22T10:48:15.325Z,32.8
2019-02-22T10:51:15.063Z,33.5
2019-02-22T10:54:15.642Z,34.2
2019-02-22T10:57:14.896Z,35.3
2019-02-22T11:00:15.327Z,36.0
2019-02-22T11:03:15.176Z,36.7
2019-02-22T11:06:15.785Z,36.7
2019-02-22T11:09:15.681Z,37.3
2019-02-22T11:12:15.348Z,37.0
2019-02-22T11:15:15.138Z,36.4
2019-02-22T11:18:15.881Z,36.0
2019-02-22T11:21:15.430Z,35.5
2019-02-22T11:24:15.015Z,36.1
2019-02-22T11:27:15.552Z,36.9
2019-02-22T11:30:15.133Z,36.6
2019-02-22T11:33:15.729Z,37.4
2019-02-22T11:36:15.282Z,37.8
2019-02-22T11:39:14.939Z,38.0
2019-02-22T11:42:15.588Z,38.4
2019-02-22T11:45:15.307Z,38.4
2019-02-22T11:48:15.117Z,39.3
2019-02-22T11:51:15.650Z,39.7
2019-02-22T11:54:15.223Z,40.1
2019-02-22T11:57:15.794Z,40.2
2019-02-22T12:00:15.613Z,40.5
2019-02-22T12:03:24.363Z,40.6
2019-02-22T12:06:15.936Z,40.7
2019-02-22T12:09:15.705Z,40.5
2019-02-22T12:12:15.187Z,40.3
2019-02-22T12:15:15.733Z,40.6
2019-02-22T12:18:15.251Z,40.5
2019-02-22T12:21:15.272Z,40.7
2019-02-22T12:24:15.009Z,40.5
2019-02-22T12:27:15.837Z,40.8
2019-02-22T12:30:15.795Z,40.6
2019-02-22T12:33:15.392Z,40.1
2019-02-22T12:36:15.151Z,39.7
2019-02-22T12:39:19.375Z,39.9
2019-02-22T12:42:17.195Z,40.0
2019-02-22T12:45:15.328Z,41.1
2019-02-22T12:48:15.766Z,41.3
2019-02-22T12:51:15.661Z,41.9
2019-02-22T12:54:15.275Z,42.8
2019-02-22T12:57:15.863Z,43.6
2019-02-22T13:00:15.437Z,43.9
2019-02-22T13:03:15.855Z,44.5
2019-02-22T13:06:15.486Z,44.7
2019-02-22T13:09:15.318Z,45.3
2019-02-22T13:12:17.397Z,45.5
2019-02-22T13:15:15.256Z,45.7
2019-02-22T13:18:15.056Z,46.6
2019-02-22T13:21:15.717Z,46.0
2019-02-22T13:24:15.371Z,46.0
2019-02-22T13:27:15.133Z,45.7
2019-02-22T13:30:15.716Z,45.2
2019-02-22T13:33:15.220Z,44.8
2019-02-22T13:36:15.867Z,44.7
2019-02-22T13:39:15.307Z,44.6
2019-02-22T13:42:15.055Z,44.4
2019-02-22T13:45:26.009Z,44.6
2019-02-22T13:48:15.097Z,45.2
2019-02-22T13:51:15.765Z,45.2
2019-02-22T13:54:15.217Z,45.0
2019-02-22T13:57:15.840Z,44.8
2019-02-22T14:00:14.977Z,44.1
2019-02-22T14:03:15.678Z,44.4
2019-02-22T14:06:15.458Z,43.4
2019-02-22T14:09:14.975Z,43.0
2019-02-22T14:12:15.484Z,42.4
2019-02-22T14:15:15.124Z,41.9
2019-02-22T14:18:15.030Z,42.3
2019-02-22T14:21:15.475Z,41.4
2019-02-22T14:24:15.073Z,41.0
2019-02-22T14:27:15.637Z,41.2
2019-02-22T14:30:15.246Z,40.7
2019-02-22T14:33:15.796Z,40.9
2019-02-22T14:36:15.382Z,40.8
2019-02-22T14:39:15.921Z,40.6
2019-02-22T14:42:15.530Z,40.7
2019-02-22T14:45:15.026Z,40.9
2019-02-22T14:48:15.447Z,40.9
2019-02-22T14:51:15.352Z,41.6
2019-02-22T14:54:15.139Z,42.1
2019-02-22T14:57:15.683Z,42.1
2019-02-22T15:00:15.317Z,42.2
2019-02-22T15:03:14.857Z,42.3
2019-02-22T15:06:15.560Z,42.6
2019-02-22T15:09:15.277Z,42.6
2019-02-22T15:12:14.937Z,42.6
2019-02-22T15:15:15.459Z,43.1
2019-02-22T15:18:15.837Z,43.1
2019-02-22T15:21:15.352Z,43.1
2019-02-22T15:24:15.145Z,43.3
2019-02-22T15:27:15.421Z,43.4
2019-02-22T15:30:15.079Z,43.4
2019-02-22T15:33:15.640Z,43.6
2019-02-22T15:36:16.050Z,43.6
2019-02-22T15:39:14.949Z,43.7
2019-02-22T15:42:15.655Z,43.8
2019-02-22T15:45:15.200Z,44.0
2019-02-22T15:48:15.786Z,44.5
2019-02-22T15:51:15.363Z,44.7
2019-02-22T15:54:15.853Z,45.0
2019-02-22T15:57:15.537Z,45.7
2019-02-22T16:00:15.098Z,45.5
2019-02-22T16:03:14.892Z,45.8
2019-02-22T16:06:20.886Z,45.8
2019-02-22T16:09:14.953Z,46.0
2019-02-22T16:12:15.494Z,46.1
2019-02-22T16:15:15.246Z,46.2
2019-02-22T16:18:14.903Z,46.4
2019-02-22T16:21:15.377Z,46.7
2019-02-22T16:24:15.846Z,47.2
2019-02-22T16:27:15.182Z,47.2
2019-02-22T16:30:15.858Z,47.6
2019-02-22T16:33:15.777Z,48.5
2019-02-22T16:36:15.188Z,48.0
2019-02-22T16:39:15.707Z,48.3
2019-02-22T16:42:15.420Z,48.7
2019-02-22T16:45:14.948Z,49.0
2019-02-22T16:48:15.558Z,49.6
2019-02-22T16:51:14.956Z,49.7
2019-02-22T16:54:15.412Z,49.6
2019-02-22T16:57:15.168Z,49.9
2019-02-22T17:00:16.955Z,49.8
2019-02-22T17:03:15.822Z,50.1
2019-02-22T17:06:15.318Z,50.3
2019-02-22T17:09:15.948Z,51.0
2019-02-22T17:12:15.687Z,50.5
2019-02-22T17:15:15.961Z,50.4
2019-02-22T17:18:15.346Z,50.7
2019-02-22T17:21:15.853Z,51.0
2019-02-22T17:24:15.408Z,51.2
2019-02-22T17:27:15.834Z,51.0
2019-02-22T17:30:15.555Z,51.3
2019-02-22T17:33:15.243Z,51.6
2019-02-22T17:36:26.145Z,51.4
2019-02-22T17:39:15.578Z,51.5
2019-02-22T17:42:15.226Z,51.9
2019-02-22T17:45:15.740Z,51.9
2019-02-22T17:48:15.453Z,51.7
2019-02-22T17:51:15.119Z,51.4
2019-02-22T17:54:15.631Z,51.9
2019-02-22T17:57:15.564Z,52.4
2019-02-22T18:00:15.286Z,53.1
2019-02-22T18:03:15.609Z,52.6
2019-02-22T18:06:15.259Z,53.0
2019-02-22T18:09:14.894Z,52.9
2019-02-22T18:12:15.677Z,53.2
2019-02-22T18:15:15.224Z,53.1
2019-02-22T18:18:15.121Z,52.9
2019-02-22T18:21:15.716Z,53.5
2019-02-22T18:24:15.568Z,53.5
2019-02-22T18:27:15.194Z,53.3
2019-02-22T18:30:15.587Z,53.8
2019-02-22T18:33:15.303Z,54.0
2019-02-22T18:36:15.829Z,53.8
2019-02-22T18:39:15.135Z,53.1
2019-02-22T18:42:15.898Z,53.3
2019-02-22T18:45:15.242Z,53.8
2019-02-22T18:48:15.936Z,53.6
2019-02-22T18:51:15.597Z,53.8
2019-02-22T18:54:15.566Z,54.2
2019-02-22T18:57:15.469Z,54.2
2019-02-22T19:00:15.065Z,53.9
2019-02-22T19:03:15.837Z,54.2
2019-02-22T19:06:15.499Z,54.3
2019-02-22T19:09:15.170Z,54.5
2019-02-22T19:12:15.101Z,54.3
2019-02-22T19:15:15.613Z,54.5
2019-02-22T19:18:15.663Z,54.2
2019-02-22T19:21:15.408Z,54.9
2019-02-22T19:24:15.497Z,54.4
2019-02-22T19:27:15.188Z,55.3
2019-02-22T19:30:15.086Z,54.3
2019-02-22T19:33:15.806Z,55.4
2019-02-22T19:36:15.309Z,54.8
2019-02-22T19:39:16.057Z,54.8
2019-02-22T19:42:15.664Z,55.3
2019-02-22T19:45:15.751Z,56.7
2019-02-22T19:48:20.821Z,55.4
2019-02-22T19:51:14.944Z,55.5
2019-02-22T19:54:15.578Z,54.9
2019-02-22T19:57:15.713Z,55.3
2019-02-22T20:00:15.361Z,55.3
2019-02-22T20:03:15.077Z,55.6
2019-02-22T20:06:15.681Z,55.6
2019-02-22T20:09:15.397Z,55.4
2019-02-22T20:12:15.804Z,55.4
2019-02-22T20:15:14.907Z,55.8
2019-02-22T20:18:15.708Z,55.0
2019-02-22T20:21:15.332Z,55.4
2019-02-22T20:24:14.934Z,56.2
2019-02-22T20:27:15.478Z,56.1
2019-02-22T20:30:15.298Z,55.6
2019-02-22T20:33:15.940Z,56.0
2019-02-22T20:36:15.844Z,55.4
2019-02-22T20:39:15.375Z,55.2
2019-02-22T20:42:15.270Z,55.7
2019-02-22T20:45:15.854Z,55.9
2019-02-22T20:48:15.508Z,55.9
2019-02-22T20:51:15.173Z,56.6
2019-02-22T20:54:15.720Z,56.0
2019-02-22T20:57:15.396Z,56.1
2019-02-22T21:00:14.955Z,56.6
2019-02-22T21:03:16.289Z,55.9
2019-02-22T21:06:15.797Z,56.0
2019-02-22T21:09:15.508Z,55.9
2019-02-22T21:12:15.087Z,56.5
2019-02-22T21:15:15.435Z,56.4
2019-02-22T21:18:16.534Z,56.9
2019-02-22T21:21:15.311Z,57.0
2019-02-22T21:24:15.772Z,57.3
2019-02-22T21:27:15.364Z,57.8
2019-02-22T21:30:15.896Z,56.4
2019-02-22T21:33:15.588Z,56.7
2019-02-22T21:36:15.053Z,58.0
2019-02-22T21:39:15.644Z,58.5
2019-02-22T21:42:20.093Z,58.4
2019-02-22T21:45:15.006Z,58.9
2019-02-22T21:48:26.966Z,59.2
2019-02-22T21:51:15.659Z,59.5
2019-02-22T21:54:15.193Z,60.2
2019-02-22T21:57:15.750Z,60.2
2019-02-22T22:00:15.003Z,60.9
2019-02-22T22:03:15.409Z,61.1
2019-02-22T22:06:15.192Z,61.3
2019-02-22T22:09:15.795Z,61.5
2019-02-22T22:12:15.188Z,61.2
2019-02-22T22:15:15.726Z,61.9
2019-02-22T22:18:15.303Z,61.9
2019-02-22T22:21:15.361Z,62.4
2019-02-22T22:24:15.830Z,62.7
2019-02-22T22:27:15.366Z,62.9
2019-02-22T22:30:15.099Z,63.0
2019-02-22T22:33:15.710Z,63.6
2019-02-22T22:36:15.257Z,63.7
2019-02-22T22:39:15.759Z,64.2
2019-02-22T22:42:15.205Z,64.0
2019-02-22T22:45:16.515Z,64.2
2019-02-22T22:48:15.543Z,64.1
2019-02-22T22:51:15.688Z,64.3
2019-02-22T22:54:15.173Z,64.5
2019-02-22T22:57:15.687Z,64.5
2019-02-22T23:00:15.243Z,64.7
2019-02-22T23:03:15.140Z,64.9
2019-02-22T23:06:15.896Z,64.7
2019-02-22T23:09:15.472Z,64.8
2019-02-22T23:12:15.209Z,65.1
2019-02-22T23:15:15.761Z,65.1
2019-02-22T23:18:15.372Z,65.0
2019-02-22T23:21:14.934Z,65.2
2019-02-22T23:24:15.705Z,65.2
2019-02-22T23:27:15.266Z,65.3
2019-02-22T23:30:15.628Z,65.4
2019-02-22T23:33:15.310Z,65.3
2019-02-22T23:36:15.424Z,65.4
2019-02-22T23:39:14.993Z,65.4
2019-02-22T23:42:15.498Z,65.5
2019-02-22T23:45:14.888Z,65.7
2019-02-22T23:48:15.376Z,65.7
2019-02-22T23:51:15.853Z,65.7
2019-02-22T23:54:15.285Z,65.9
2019-02-22T23:57:15.820Z,65.9
